Pagina principale
METAR-TAF:

METAR-TAF

Aeroporti :

Rouen, Francia

latitudine: 49-23N, longitudine: 001-11E, altezza: 157 m

Osservazione

Il bollettino è stato emesso 35 minuti fa, alle 03:00 UTC
Vento 15 kt da nord/nord-est
Temperature 0°C
Umidità 51%
Pressione 1031 hPa
Visibilità 10 km o più
nessuna nube inferiore a 1500 m e nessun cumulonembo

METAR: LFOP 300300Z AUTO 03015KT CAVOK 00/M09 Q1031

Ora: 05:35 (03:35 UTC)

Previsione

Il bollettino è stato emesso 10 ore e 35 minuti fa, alle 17:00 UTC
Previsione valida dal 29 alle 18 UTC al 30 alle 18 UTC
Vento 23 kt da nord/nord-est con raffiche fino a 35 kt
Visibilità 10 km o più
nessuna nube inferiore a 1500 m e nessun cumulonembo
Evoluzione graduale
dal 29 alle 22 UTC al 29 alle 24 UTC
Vento 15 kt da nord/nord-est con raffiche fino a 25 kt
Evoluzione graduale
dal 30 alle 16 UTC al 30 alle 18 UTC
Vento 12 kt da nord/nord-est

TAF: LFOP 291700Z 2918/3018 03023G35KT CAVOK BECMG 2922/2924 03015G25KT BECMG 3016/3018 03012KT

Osservazioni e previsioni meteorologiche di più di 4000 aeroporti (messaggi METAR e TAF).

Le stazioni disponibili sono rappresentate dai dischi gialli e rossi sulla carta.

Puntare il mouse per vedere il nome della stazione.

Clicca sopra per visualizzare le osservazioni e previsioni meteorologiche.

Per cambiare la mappa : fare clic sui pulsanti verdi con una croce nera per ingrandire, il pulsante verde con un trattino per diminuire, o sulla freccia verde per le mappe adiacenti.


METAR-TAF: